sensor_id;sensor_type;location;lat;lon;timestamp;temperature;humidity
36818;DHT22;22761;51.542;16.450;2022-11-03T00:01:47;9.02;69.42
36818;DHT22;22761;51.542;16.450;2022-11-03T00:04:16;8.99;69.53
36818;DHT22;22761;51.542;16.450;2022-11-03T00:06:47;8.98;69.26
36818;DHT22;22761;51.542;16.450;2022-11-03T00:09:17;8.91;69.68
36818;DHT22;22761;51.542;16.450;2022-11-03T00:11:46;8.91;70.19
36818;DHT22;22761;51.542;16.450;2022-11-03T00:14:14;8.89;70.11
36818;DHT22;22761;51.542;16.450;2022-11-03T00:16:42;8.85;70.62
36818;DHT22;22761;51.542;16.450;2022-11-03T00:19:10;8.79;69.68
36818;DHT22;22761;51.542;16.450;2022-11-03T00:21:39;8.79;69.69
36818;DHT22;22761;51.542;16.450;2022-11-03T00:24:07;8.78;69.80
36818;DHT22;22761;51.542;16.450;2022-11-03T00:26:35;8.72;70.10
36818;DHT22;22761;51.542;16.450;2022-11-03T00:29:12;8.71;69.67
36818;DHT22;22761;51.542;16.450;2022-11-03T00:31:43;8.67;69.40
36818;DHT22;22761;51.542;16.450;2022-11-03T00:34:11;8.60;69.33
36818;DHT22;22761;51.542;16.450;2022-11-03T00:36:41;8.57;69.16
36818;DHT22;22761;51.542;16.450;2022-11-03T00:39:10;8.53;69.18
36818;DHT22;22761;51.542;16.450;2022-11-03T00:41:38;8.48;68.52
36818;DHT22;22761;51.542;16.450;2022-11-03T00:44:06;8.43;68.63
36818;DHT22;22761;51.542;16.450;2022-11-03T00:46:35;8.37;68.76
36818;DHT22;22761;51.542;16.450;2022-11-03T00:49:04;8.36;68.80
36818;DHT22;22761;51.542;16.450;2022-11-03T00:51:32;8.32;69.79
36818;DHT22;22761;51.542;16.450;2022-11-03T00:54:02;8.32;69.23
36818;DHT22;22761;51.542;16.450;2022-11-03T00:56:40;8.29;69.62
36818;DHT22;22761;51.542;16.450;2022-11-03T00:59:06;8.27;69.55
36818;DHT22;22761;51.542;16.450;2022-11-03T01:01:42;8.27;69.82
36818;DHT22;22761;51.542;16.450;2022-11-03T01:04:10;8.26;69.45
36818;DHT22;22761;51.542;16.450;2022-11-03T01:06:58;8.27;69.72
36818;DHT22;22761;51.542;16.450;2022-11-03T01:09:39;8.23;69.64
36818;DHT22;22761;51.542;16.450;2022-11-03T01:12:18;8.23;70.28
36818;DHT22;22761;51.542;16.450;2022-11-03T01:14:51;8.22;70.15
36818;DHT22;22761;51.542;16.450;2022-11-03T01:17:22;8.23;69.20
36818;DHT22;22761;51.542;16.450;2022-11-03T01:19:51;8.19;69.33
36818;DHT22;22761;51.542;16.450;2022-11-03T01:22:19;8.16;69.70
36818;DHT22;22761;51.542;16.450;2022-11-03T01:24:47;8.16;70.56
36818;DHT22;22761;51.542;16.450;2022-11-03T01:27:17;8.15;70.31
36818;DHT22;22761;51.542;16.450;2022-11-03T01:29:44;8.12;69.67
36818;DHT22;22761;51.542;16.450;2022-11-03T01:32:12;8.12;71.20
36818;DHT22;22761;51.542;16.450;2022-11-03T01:34:39;8.13;71.03
36818;DHT22;22761;51.542;16.450;2022-11-03T01:37:07;8.12;70.36
36818;DHT22;22761;51.542;16.450;2022-11-03T01:39:34;8.16;71.78
36818;DHT22;22761;51.542;16.450;2022-11-03T01:42:01;8.16;70.99
36818;DHT22;22761;51.542;16.450;2022-11-03T01:44:35;8.15;69.90
36818;DHT22;22761;51.542;16.450;2022-11-03T01:47:32;8.12;71.29
36818;DHT22;22761;51.542;16.450;2022-11-03T01:50:16;8.10;71.49
36818;DHT22;22761;51.542;16.450;2022-11-03T01:52:48;8.12;70.94
36818;DHT22;22761;51.542;16.450;2022-11-03T01:55:20;8.10;72.19
36818;DHT22;22761;51.542;16.450;2022-11-03T01:57:58;8.09;73.12
36818;DHT22;22761;51.542;16.450;2022-11-03T02:00:22;8.08;72.75
36818;DHT22;22761;51.542;16.450;2022-11-03T02:02:50;8.12;71.92
36818;DHT22;22761;51.542;16.450;2022-11-03T02:05:19;8.13;71.74
36818;DHT22;22761;51.542;16.450;2022-11-03T02:08:06;8.10;70.75
36818;DHT22;22761;51.542;16.450;2022-11-03T02:10:30;8.05;70.04
36818;DHT22;22761;51.542;16.450;2022-11-03T02:12:58;8.02;69.68
36818;DHT22;22761;51.542;16.450;2022-11-03T02:15:25;7.98;69.98
36818;DHT22;22761;51.542;16.450;2022-11-03T02:17:53;7.95;70.55
36818;DHT22;22761;51.542;16.450;2022-11-03T02:20:29;7.94;69.61
36818;DHT22;22761;51.542;16.450;2022-11-03T02:25:47;7.82;68.72
36818;DHT22;22761;51.542;16.450;2022-11-03T02:28:20;7.77;68.75
36818;DHT22;22761;51.542;16.450;2022-11-03T02:31:09;7.71;68.74
36818;DHT22;22761;51.542;16.450;2022-11-03T02:39:33;7.56;68.95
36818;DHT22;22761;51.542;16.450;2022-11-03T02:42:02;7.50;68.98
36818;DHT22;22761;51.542;16.450;2022-11-03T02:44:32;7.46;69.16
36818;DHT22;22761;51.542;16.450;2022-11-03T02:47:04;7.39;68.96
36818;DHT22;22761;51.542;16.450;2022-11-03T02:49:45;7.36;69.59
36818;DHT22;22761;51.542;16.450;2022-11-03T02:52:39;7.33;69.18
36818;DHT22;22761;51.542;16.450;2022-11-03T02:55:25;7.29;69.12
36818;DHT22;22761;51.542;16.450;2022-11-03T03:01:06;7.19;69.61
36818;DHT22;22761;51.542;16.450;2022-11-03T03:03:38;7.18;70.98
36818;DHT22;22761;51.542;16.450;2022-11-03T03:06:14;7.15;71.80
36818;DHT22;22761;51.542;16.450;2022-11-03T03:08:45;7.23;71.11
36818;DHT22;22761;51.542;16.450;2022-11-03T03:11:13;7.23;70.58
36818;DHT22;22761;51.542;16.450;2022-11-03T03:13:41;7.25;69.99
36818;DHT22;22761;51.542;16.450;2022-11-03T03:16:17;7.23;69.79
36818;DHT22;22761;51.542;16.450;2022-11-03T03:19:06;7.22;70.59
36818;DHT22;22761;51.542;16.450;2022-11-03T03:21:38;7.26;70.09
36818;DHT22;22761;51.542;16.450;2022-11-03T03:24:14;7.28;69.59
36818;DHT22;22761;51.542;16.450;2022-11-03T03:26:45;7.25;70.63
36818;DHT22;22761;51.542;16.450;2022-11-03T03:29:23;7.29;70.30
36818;DHT22;22761;51.542;16.450;2022-11-03T03:31:58;7.29;72.16
36818;DHT22;22761;51.542;16.450;2022-11-03T03:34:28;7.32;71.08
36818;DHT22;22761;51.542;16.450;2022-11-03T03:36:57;7.33;70.42
36818;DHT22;22761;51.542;16.450;2022-11-03T03:39:30;7.33;70.30
36818;DHT22;22761;51.542;16.450;2022-11-03T03:41:59;7.36;69.73
36818;DHT22;22761;51.542;16.450;2022-11-03T03:44:28;7.33;69.96
36818;DHT22;22761;51.542;16.450;2022-11-03T03:47:06;7.35;70.10
36818;DHT22;22761;51.542;16.450;2022-11-03T03:49:34;7.33;70.91
36818;DHT22;22761;51.542;16.450;2022-11-03T03:52:01;7.35;70.32
36818;DHT22;22761;51.542;16.450;2022-11-03T03:54:29;7.36;70.98
36818;DHT22;22761;51.542;16.450;2022-11-03T03:57:04;7.39;70.21
36818;DHT22;22761;51.542;16.450;2022-11-03T03:59:32;7.40;70.14
36818;DHT22;22761;51.542;16.450;2022-11-03T04:01:59;7.40;70.13
36818;DHT22;22761;51.542;16.450;2022-11-03T04:04:26;7.45;71.37
36818;DHT22;22761;51.542;16.450;2022-11-03T04:06:53;7.43;70.60
36818;DHT22;22761;51.542;16.450;2022-11-03T04:09:22;7.49;72.18
36818;DHT22;22761;51.542;16.450;2022-11-03T04:11:50;7.53;70.68
36818;DHT22;22761;51.542;16.450;2022-11-03T04:14:35;7.53;70.26
36818;DHT22;22761;51.542;16.450;2022-11-03T04:17:21;7.54;69.15
36818;DHT22;22761;51.542;16.450;2022-11-03T04:20:10;7.53;71.06
36818;DHT22;22761;51.542;16.450;2022-11-03T04:22:56;7.57;72.75
36818;DHT22;22761;51.542;16.450;2022-11-03T04:25:23;7.64;72.20
36818;DHT22;22761;51.542;16.450;2022-11-03T04:27:50;7.67;72.45
36818;DHT22;22761;51.542;16.450;2022-11-03T04:30:19;7.74;72.71
36818;DHT22;22761;51.542;16.450;2022-11-03T04:32:48;7.84;71.38
36818;DHT22;22761;51.542;16.450;2022-11-03T04:35:25;7.85;69.96
36818;DHT22;22761;51.542;16.450;2022-11-03T04:38:07;7.87;69.08
36818;DHT22;22761;51.542;16.450;2022-11-03T04:40:28;7.88;69.73
36818;DHT22;22761;51.542;16.450;2022-11-03T04:42:55;7.88;69.96
36818;DHT22;22761;51.542;16.450;2022-11-03T04:45:31;7.85;68.39
36818;DHT22;22761;51.542;16.450;2022-11-03T04:48:01;7.84;69.67
36818;DHT22;22761;51.542;16.450;2022-11-03T04:50:30;7.80;69.41
36818;DHT22;22761;51.542;16.450;2022-11-03T04:52:58;7.76;68.54
36818;DHT22;22761;51.542;16.450;2022-11-03T04:55:25;7.71;68.61
36818;DHT22;22761;51.542;16.450;2022-11-03T04:58:05;7.67;68.98
36818;DHT22;22761;51.542;16.450;2022-11-03T05:00:30;7.64;69.79
36818;DHT22;22761;51.542;16.450;2022-11-03T05:02:57;7.61;70.16
36818;DHT22;22761;51.542;16.450;2022-11-03T05:05:25;7.65;69.68
36818;DHT22;22761;51.542;16.450;2022-11-03T05:07:55;7.63;69.56
36818;DHT22;22761;51.542;16.450;2022-11-03T05:10:27;7.64;70.12
36818;DHT22;22761;51.542;16.450;2022-11-03T05:12:55;7.67;71.18
36818;DHT22;22761;51.542;16.450;2022-11-03T05:15:36;7.70;72.21
36818;DHT22;22761;51.542;16.450;2022-11-03T05:18:24;7.74;72.08
36818;DHT22;22761;51.542;16.450;2022-11-03T05:21:03;7.77;70.47
36818;DHT22;22761;51.542;16.450;2022-11-03T05:23:40;7.76;70.68
36818;DHT22;22761;51.542;16.450;2022-11-03T05:26:18;7.74;70.06
36818;DHT22;22761;51.542;16.450;2022-11-03T05:28:51;7.76;69.55
36818;DHT22;22761;51.542;16.450;2022-11-03T05:31:30;7.76;69.15
36818;DHT22;22761;51.542;16.450;2022-11-03T05:34:09;7.70;69.61
36818;DHT22;22761;51.542;16.450;2022-11-03T05:36:32;7.67;68.66
36818;DHT22;22761;51.542;16.450;2022-11-03T05:41:44;7.56;68.69
36818;DHT22;22761;51.542;16.450;2022-11-03T05:46:56;7.47;68.39
36818;DHT22;22761;51.542;16.450;2022-11-03T05:49:24;7.40;69.14
36818;DHT22;22761;51.542;16.450;2022-11-03T05:51:51;7.40;68.90
36818;DHT22;22761;51.542;16.450;2022-11-03T05:54:25;7.39;69.29
36818;DHT22;22761;51.542;16.450;2022-11-03T05:56:52;7.36;69.03
36818;DHT22;22761;51.542;16.450;2022-11-03T05:59:27;7.33;69.37
36818;DHT22;22761;51.542;16.450;2022-11-03T06:01:58;7.32;70.00
36818;DHT22;22761;51.542;16.450;2022-11-03T06:04:33;7.32;69.73
36818;DHT22;22761;51.542;16.450;2022-11-03T06:07:15;7.29;69.81
36818;DHT22;22761;51.542;16.450;2022-11-03T06:09:37;7.28;69.78
36818;DHT22;22761;51.542;16.450;2022-11-03T06:12:06;7.28;69.83
36818;DHT22;22761;51.542;16.450;2022-11-03T06:14:35;7.26;70.37
36818;DHT22;22761;51.542;16.450;2022-11-03T06:17:17;7.26;71.00
36818;DHT22;22761;51.542;16.450;2022-11-03T06:19:49;7.26;71.26
36818;DHT22;22761;51.542;16.450;2022-11-03T06:22:28;7.33;71.72
36818;DHT22;22761;51.542;16.450;2022-11-03T06:25:10;7.36;72.51
36818;DHT22;22761;51.542;16.450;2022-11-03T06:27:29;7.45;73.06
36818;DHT22;22761;51.542;16.450;2022-11-03T06:30:04;7.54;73.45
36818;DHT22;22761;51.542;16.450;2022-11-03T06:32:29;7.60;72.46
36818;DHT22;22761;51.542;16.450;2022-11-03T06:34:59;7.67;72.53
36818;DHT22;22761;51.542;16.450;2022-11-03T06:37:31;7.71;71.73
36818;DHT22;22761;51.542;16.450;2022-11-03T06:42:42;7.80;72.21
36818;DHT22;22761;51.542;16.450;2022-11-03T06:45:20;7.88;72.25
36818;DHT22;22761;51.542;16.450;2022-11-03T06:47:48;7.95;72.21
36818;DHT22;22761;51.542;16.450;2022-11-03T06:50:32;8.02;72.69
36818;DHT22;22761;51.542;16.450;2022-11-03T06:53:02;8.09;72.60
36818;DHT22;22761;51.542;16.450;2022-11-03T06:55:31;8.19;72.66
36818;DHT22;22761;51.542;16.450;2022-11-03T07:00:49;8.35;72.92
36818;DHT22;22761;51.542;16.450;2022-11-03T07:03:30;8.44;73.23
36818;DHT22;22761;51.542;16.450;2022-11-03T07:06:14;8.57;73.41
36818;DHT22;22761;51.542;16.450;2022-11-03T07:08:54;8.65;73.02
36818;DHT22;22761;51.542;16.450;2022-11-03T07:11:21;8.78;73.31
36818;DHT22;22761;51.542;16.450;2022-11-03T07:13:58;8.94;72.68
36818;DHT22;22761;51.542;16.450;2022-11-03T07:16:40;9.02;73.17
36818;DHT22;22761;51.542;16.450;2022-11-03T07:21:51;9.27;72.81
36818;DHT22;22761;51.542;16.450;2022-11-03T07:27:30;9.50;73.21
36818;DHT22;22761;51.542;16.450;2022-11-03T07:30:05;9.62;73.34
36818;DHT22;22761;51.542;16.450;2022-11-03T07:32:31;9.75;72.96
36818;DHT22;22761;51.542;16.450;2022-11-03T07:35:23;9.88;72.65
36818;DHT22;22761;51.542;16.450;2022-11-03T07:37:50;9.99;72.65
36818;DHT22;22761;51.542;16.450;2022-11-03T07:40:21;10.03;72.54
36818;DHT22;22761;51.542;16.450;2022-11-03T07:42:50;10.14;72.50
36818;DHT22;22761;51.542;16.450;2022-11-03T07:45:40;10.19;72.50
36818;DHT22;22761;51.542;16.450;2022-11-03T07:48:28;10.30;71.87
36818;DHT22;22761;51.542;16.450;2022-11-03T07:50:58;10.40;72.14
36818;DHT22;22761;51.542;16.450;2022-11-03T07:53:39;10.52;71.39
36818;DHT22;22761;51.542;16.450;2022-11-03T07:56:26;10.70;71.40
36818;DHT22;22761;51.542;16.450;2022-11-03T08:01:35;10.88;70.76
36818;DHT22;22761;51.542;16.450;2022-11-03T08:04:18;10.99;70.51
36818;DHT22;22761;51.542;16.450;2022-11-03T08:06:45;11.17;70.27
36818;DHT22;22761;51.542;16.450;2022-11-03T08:09:13;11.33;70.37
36818;DHT22;22761;51.542;16.450;2022-11-03T08:11:40;11.45;69.71
36818;DHT22;22761;51.542;16.450;2022-11-03T08:14:07;11.62;69.32
36818;DHT22;22761;51.542;16.450;2022-11-03T08:16:34;11.78;69.65
36818;DHT22;22761;51.542;16.450;2022-11-03T08:19:01;11.96;68.93
36818;DHT22;22761;51.542;16.450;2022-11-03T08:21:28;12.14;68.53
36818;DHT22;22761;51.542;16.450;2022-11-03T08:23:55;12.31;67.85
36818;DHT22;22761;51.542;16.450;2022-11-03T08:26:22;12.47;68.17
36818;DHT22;22761;51.542;16.450;2022-11-03T08:28:49;12.62;67.83
36818;DHT22;22761;51.542;16.450;2022-11-03T08:31:16;12.78;67.76
36818;DHT22;22761;51.542;16.450;2022-11-03T08:33:43;12.96;67.49
36818;DHT22;22761;51.542;16.450;2022-11-03T08:36:10;13.11;66.60
36818;DHT22;22761;51.542;16.450;2022-11-03T08:38:37;13.27;67.02
36818;DHT22;22761;51.542;16.450;2022-11-03T08:41:04;13.42;67.04
36818;DHT22;22761;51.542;16.450;2022-11-03T08:43:31;13.56;65.53
36818;DHT22;22761;51.542;16.450;2022-11-03T08:45:58;13.75;65.46
36818;DHT22;22761;51.542;16.450;2022-11-03T08:48:26;13.87;64.75
36818;DHT22;22761;51.542;16.450;2022-11-03T08:50:54;14.00;64.12
36818;DHT22;22761;51.542;16.450;2022-11-03T08:53:24;14.13;63.91
36818;DHT22;22761;51.542;16.450;2022-11-03T08:55:54;14.27;63.56
36818;DHT22;22761;51.542;16.450;2022-11-03T08:58:21;14.36;63.65
36818;DHT22;22761;51.542;16.450;2022-11-03T09:00:49;14.51;63.09
36818;DHT22;22761;51.542;16.450;2022-11-03T09:03:16;14.65;62.74
36818;DHT22;22761;51.542;16.450;2022-11-03T09:05:43;14.83;61.73
36818;DHT22;22761;51.542;16.450;2022-11-03T09:08:10;14.93;61.88
36818;DHT22;22761;51.542;16.450;2022-11-03T09:10:37;14.98;61.90
36818;DHT22;22761;51.542;16.450;2022-11-03T09:13:04;15.10;61.20
36818;DHT22;22761;51.542;16.450;2022-11-03T09:15:32;15.18;60.92
36818;DHT22;22761;51.542;16.450;2022-11-03T09:17:59;15.28;60.51
36818;DHT22;22761;51.542;16.450;2022-11-03T09:20:26;15.39;60.09
36818;DHT22;22761;51.542;16.450;2022-11-03T09:22:53;15.55;59.41
36818;DHT22;22761;51.542;16.450;2022-11-03T09:25:20;15.72;58.27
36818;DHT22;22761;51.542;16.450;2022-11-03T09:27:47;15.72;57.41
36818;DHT22;22761;51.542;16.450;2022-11-03T09:30:14;15.55;57.14
36818;DHT22;22761;51.542;16.450;2022-11-03T09:32:43;15.41;55.98
36818;DHT22;22761;51.542;16.450;2022-11-03T09:35:12;15.27;56.39
36818;DHT22;22761;51.542;16.450;2022-11-03T09:37:40;15.22;55.96
36818;DHT22;22761;51.542;16.450;2022-11-03T09:40:09;15.25;56.74
36818;DHT22;22761;51.542;16.450;2022-11-03T09:42:38;15.27;56.06
36818;DHT22;22761;51.542;16.450;2022-11-03T09:45:07;15.22;55.35
36818;DHT22;22761;51.542;16.450;2022-11-03T09:47:41;15.27;55.56
36818;DHT22;22761;51.542;16.450;2022-11-03T09:50:19;15.34;56.53
36818;DHT22;22761;51.542;16.450;2022-11-03T09:52:47;15.45;57.05
36818;DHT22;22761;51.542;16.450;2022-11-03T09:55:27;15.66;55.81
36818;DHT22;22761;51.542;16.450;2022-11-03T09:57:54;15.83;55.04
36818;DHT22;22761;51.542;16.450;2022-11-03T10:00:23;15.98;53.63
36818;DHT22;22761;51.542;16.450;2022-11-03T10:02:51;16.10;54.97
36818;DHT22;22761;51.542;16.450;2022-11-03T10:05:26;16.21;52.94
36818;DHT22;22761;51.542;16.450;2022-11-03T10:08:00;16.35;54.25
36818;DHT22;22761;51.542;16.450;2022-11-03T10:10:29;16.46;53.52
36818;DHT22;22761;51.542;16.450;2022-11-03T10:13:00;16.62;53.75
36818;DHT22;22761;51.542;16.450;2022-11-03T10:15:27;16.74;53.02
36818;DHT22;22761;51.542;16.450;2022-11-03T10:17:55;16.87;51.91
36818;DHT22;22761;51.542;16.450;2022-11-03T10:20:22;17.00;50.59
36818;DHT22;22761;51.542;16.450;2022-11-03T10:22:53;17.07;51.77
36818;DHT22;22761;51.542;16.450;2022-11-03T10:25:39;17.19;51.35
36818;DHT22;22761;51.542;16.450;2022-11-03T10:28:20;17.40;49.71
36818;DHT22;22761;51.542;16.450;2022-11-03T10:33:36;17.64;49.29
36818;DHT22;22761;51.542;16.450;2022-11-03T10:38:45;17.87;47.97
36818;DHT22;22761;51.542;16.450;2022-11-03T10:41:17;17.94;48.05
36818;DHT22;22761;51.542;16.450;2022-11-03T10:44:21;18.02;47.04
36818;DHT22;22761;51.542;16.450;2022-11-03T10:46:23;18.08;47.85
36818;DHT22;22761;51.542;16.450;2022-11-03T10:49:15;18.18;46.75
36818;DHT22;22761;51.542;16.450;2022-11-03T10:51:48;18.32;47.49
36818;DHT22;22761;51.542;16.450;2022-11-03T10:54:22;18.37;46.56
36818;DHT22;22761;51.542;16.450;2022-11-03T10:56:47;18.45;46.34
36818;DHT22;22761;51.542;16.450;2022-11-03T10:59:23;18.54;45.76
36818;DHT22;22761;51.542;16.450;2022-11-03T11:01:50;18.63;45.82
36818;DHT22;22761;51.542;16.450;2022-11-03T11:04:19;18.77;45.72
36818;DHT22;22761;51.542;16.450;2022-11-03T11:06:46;18.97;46.44
36818;DHT22;22761;51.542;16.450;2022-11-03T11:09:25;19.30;44.97
36818;DHT22;22761;51.542;16.450;2022-11-03T11:12:15;19.52;45.08
36818;DHT22;22761;51.542;16.450;2022-11-03T11:15:00;19.72;44.62
36818;DHT22;22761;51.542;16.450;2022-11-03T11:17:47;19.91;43.14
36818;DHT22;22761;51.542;16.450;2022-11-03T11:22:54;20.20;42.98
36818;DHT22;22761;51.542;16.450;2022-11-03T11:25:23;20.27;42.44
36818;DHT22;22761;51.542;16.450;2022-11-03T11:27:55;20.25;41.77
36818;DHT22;22761;51.542;16.450;2022-11-03T11:33:23;20.33;41.82
36818;DHT22;22761;51.542;16.450;2022-11-03T11:41:14;20.77;41.32
36818;DHT22;22761;51.542;16.450;2022-11-03T11:43:41;20.85;40.35
36818;DHT22;22761;51.542;16.450;2022-11-03T11:46:39;20.82;40.58
36818;DHT22;22761;51.542;16.450;2022-11-03T11:51:40;20.65;40.20
36818;DHT22;22761;51.542;16.450;2022-11-03T11:54:15;20.64;41.43
36818;DHT22;22761;51.542;16.450;2022-11-03T11:56:46;20.64;39.55
36818;DHT22;22761;51.542;16.450;2022-11-03T11:59:23;20.61;39.13
36818;DHT22;22761;51.542;16.450;2022-11-03T12:01:53;20.62;39.95
36818;DHT22;22761;51.542;16.450;2022-11-03T12:04:26;20.71;39.82
36818;DHT22;22761;51.542;16.450;2022-11-03T12:06:56;20.84;40.05
36818;DHT22;22761;51.542;16.450;2022-11-03T12:09:26;20.96;37.76
36818;DHT22;22761;51.542;16.450;2022-11-03T12:11:59;21.07;37.88
36818;DHT22;22761;51.542;16.450;2022-11-03T12:19:53;21.13;38.52
36818;DHT22;22761;51.542;16.450;2022-11-03T12:25:00;20.98;37.81
36818;DHT22;22761;51.542;16.450;2022-11-03T12:30:14;20.70;37.00
36818;DHT22;22761;51.542;16.450;2022-11-03T12:32:39;20.71;36.92
36818;DHT22;22761;51.542;16.450;2022-11-03T12:35:08;20.74;37.64
36818;DHT22;22761;51.542;16.450;2022-11-03T12:37:36;20.82;37.47
36818;DHT22;22761;51.542;16.450;2022-11-03T12:40:05;20.87;38.04
36818;DHT22;22761;51.542;16.450;2022-11-03T12:42:32;20.88;38.40
36818;DHT22;22761;51.542;16.450;2022-11-03T12:45:00;20.88;37.99
36818;DHT22;22761;51.542;16.450;2022-11-03T12:47:27;20.75;38.75
36818;DHT22;22761;51.542;16.450;2022-11-03T12:49:54;20.57;38.66
36818;DHT22;22761;51.542;16.450;2022-11-03T12:52:21;20.36;37.56
36818;DHT22;22761;51.542;16.450;2022-11-03T12:54:48;20.17;38.43
36818;DHT22;22761;51.542;16.450;2022-11-03T12:57:15;19.99;38.71
36818;DHT22;22761;51.542;16.450;2022-11-03T12:59:42;19.92;39.19
36818;DHT22;22761;51.542;16.450;2022-11-03T13:02:10;19.81;39.48
36818;DHT22;22761;51.542;16.450;2022-11-03T13:04:37;19.77;39.82
36818;DHT22;22761;51.542;16.450;2022-11-03T13:07:05;19.68;39.71
36818;DHT22;22761;51.542;16.450;2022-11-03T13:09:32;19.60;40.07
36818;DHT22;22761;51.542;16.450;2022-11-03T13:12:01;19.60;38.76
36818;DHT22;22761;51.542;16.450;2022-11-03T13:14:46;19.60;39.49
36818;DHT22;22761;51.542;16.450;2022-11-03T13:17:13;19.54;39.31
36818;DHT22;22761;51.542;16.450;2022-11-03T13:19:40;19.36;39.76
36818;DHT22;22761;51.542;16.450;2022-11-03T13:22:07;19.23;40.27
36818;DHT22;22761;51.542;16.450;2022-11-03T13:24:34;19.03;40.77
36818;DHT22;22761;51.542;16.450;2022-11-03T13:27:01;18.78;41.98
36818;DHT22;22761;51.542;16.450;2022-11-03T13:29:28;18.50;42.80
36818;DHT22;22761;51.542;16.450;2022-11-03T13:31:55;18.23;43.11
36818;DHT22;22761;51.542;16.450;2022-11-03T13:34:24;18.01;43.90
36818;DHT22;22761;51.542;16.450;2022-11-03T13:36:52;17.80;44.39
36818;DHT22;22761;51.542;16.450;2022-11-03T13:39:19;17.66;44.94
36818;DHT22;22761;51.542;16.450;2022-11-03T13:41:46;17.50;44.53
36818;DHT22;22761;51.542;16.450;2022-11-03T13:44:15;17.37;45.11
36818;DHT22;22761;51.542;16.450;2022-11-03T13:46:42;17.30;45.49
36818;DHT22;22761;51.542;16.450;2022-11-03T13:49:09;17.26;46.56
36818;DHT22;22761;51.542;16.450;2022-11-03T13:51:37;17.28;46.57
36818;DHT22;22761;51.542;16.450;2022-11-03T13:54:04;17.22;46.48
36818;DHT22;22761;51.542;16.450;2022-11-03T13:56:31;17.18;46.41
36818;DHT22;22761;51.542;16.450;2022-11-03T13:58:58;17.14;47.06
36818;DHT22;22761;51.542;16.450;2022-11-03T14:01:25;17.08;47.45
36818;DHT22;22761;51.542;16.450;2022-11-03T14:03:53;17.01;47.41
36818;DHT22;22761;51.542;16.450;2022-11-03T14:06:20;16.92;47.68
36818;DHT22;22761;51.542;16.450;2022-11-03T14:08:47;16.78;48.21
36818;DHT22;22761;51.542;16.450;2022-11-03T14:11:14;16.75;48.22
36818;DHT22;22761;51.542;16.450;2022-11-03T14:13:59;16.77;48.48
36818;DHT22;22761;51.542;16.450;2022-11-03T14:16:26;16.81;48.56
36818;DHT22;22761;51.542;16.450;2022-11-03T14:18:53;16.75;48.89
36818;DHT22;22761;51.542;16.450;2022-11-03T14:21:23;16.68;48.68
36818;DHT22;22761;51.542;16.450;2022-11-03T14:23:50;16.62;49.51
36818;DHT22;22761;51.542;16.450;2022-11-03T14:26:17;16.45;50.55
36818;DHT22;22761;51.542;16.450;2022-11-03T14:28:44;16.27;50.91
36818;DHT22;22761;51.542;16.450;2022-11-03T14:31:11;16.08;51.61
36818;DHT22;22761;51.542;16.450;2022-11-03T14:33:38;15.90;52.67
36818;DHT22;22761;51.542;16.450;2022-11-03T14:36:06;15.70;53.69
36818;DHT22;22761;51.542;16.450;2022-11-03T14:38:33;15.55;53.86
36818;DHT22;22761;51.542;16.450;2022-11-03T14:41:00;15.38;54.18
36818;DHT22;22761;51.542;16.450;2022-11-03T14:43:46;15.19;55.10
36818;DHT22;22761;51.542;16.450;2022-11-03T14:46:13;15.03;55.33
36818;DHT22;22761;51.542;16.450;2022-11-03T14:48:40;14.87;56.21
36818;DHT22;22761;51.542;16.450;2022-11-03T14:51:07;14.72;56.57
36818;DHT22;22761;51.542;16.450;2022-11-03T14:53:34;14.59;57.07
36818;DHT22;22761;51.542;16.450;2022-11-03T14:56:01;14.48;57.86
36818;DHT22;22761;51.542;16.450;2022-11-03T14:58:29;14.35;57.83
36818;DHT22;22761;51.542;16.450;2022-11-03T15:00:56;14.24;58.13
36818;DHT22;22761;51.542;16.450;2022-11-03T15:03:23;14.15;58.59
36818;DHT22;22761;51.542;16.450;2022-11-03T15:05:50;14.04;58.82
36818;DHT22;22761;51.542;16.450;2022-11-03T15:08:18;13.92;59.71
36818;DHT22;22761;51.542;16.450;2022-11-03T15:10:45;13.79;60.23
36818;DHT22;22761;51.542;16.450;2022-11-03T15:13:13;13.68;60.28
36818;DHT22;22761;51.542;16.450;2022-11-03T15:15:40;13.55;60.96
36818;DHT22;22761;51.542;16.450;2022-11-03T15:18:08;13.42;60.96
36818;DHT22;22761;51.542;16.450;2022-11-03T15:20:36;13.32;61.53
36818;DHT22;22761;51.542;16.450;2022-11-03T15:23:06;13.23;61.45
36818;DHT22;22761;51.542;16.450;2022-11-03T15:25:33;13.15;62.40
36818;DHT22;22761;51.542;16.450;2022-11-03T15:28:01;13.24;62.42
36818;DHT22;22761;51.542;16.450;2022-11-03T15:30:28;13.58;62.60
36818;DHT22;22761;51.542;16.450;2022-11-03T15:32:55;13.82;61.45
36818;DHT22;22761;51.542;16.450;2022-11-03T15:35:23;14.04;60.86
36818;DHT22;22761;51.542;16.450;2022-11-03T15:37:50;14.20;60.22
36818;DHT22;22761;51.542;16.450;2022-11-03T15:40:19;14.33;60.02
36818;DHT22;22761;51.542;16.450;2022-11-03T15:42:46;14.42;59.60
36818;DHT22;22761;51.542;16.450;2022-11-03T15:45:14;14.52;59.44
36818;DHT22;22761;51.542;16.450;2022-11-03T15:47:41;14.39;58.97
36818;DHT22;22761;51.542;16.450;2022-11-03T15:50:10;14.07;59.71
36818;DHT22;22761;51.542;16.450;2022-11-03T15:52:39;13.76;60.03
36818;DHT22;22761;51.542;16.450;2022-11-03T15:55:08;13.52;60.81
36818;DHT22;22761;51.542;16.450;2022-11-03T15:57:39;13.30;61.39
36818;DHT22;22761;51.542;16.450;2022-11-03T16:00:10;13.13;61.96
36818;DHT22;22761;51.542;16.450;2022-11-03T16:02:39;13.00;62.57
36818;DHT22;22761;51.542;16.450;2022-11-03T16:05:08;13.03;62.74
36818;DHT22;22761;51.542;16.450;2022-11-03T16:07:36;13.30;62.40
36818;DHT22;22761;51.542;16.450;2022-11-03T16:10:05;13.49;61.93
36818;DHT22;22761;51.542;16.450;2022-11-03T16:12:33;13.66;61.42
36818;DHT22;22761;51.542;16.450;2022-11-03T16:15:02;13.79;61.05
36818;DHT22;22761;51.542;16.450;2022-11-03T16:17:29;13.94;60.78
36818;DHT22;22761;51.542;16.450;2022-11-03T16:19:57;14.04;60.05
36818;DHT22;22761;51.542;16.450;2022-11-03T16:22:23;14.10;59.84
36818;DHT22;22761;51.542;16.450;2022-11-03T16:24:50;14.13;59.58
36818;DHT22;22761;51.542;16.450;2022-11-03T16:27:18;14.14;59.24
36818;DHT22;22761;51.542;16.450;2022-11-03T16:29:45;14.00;58.90
36818;DHT22;22761;51.542;16.450;2022-11-03T16:32:12;13.62;59.81
36818;DHT22;22761;51.542;16.450;2022-11-03T16:34:40;13.31;60.61
36818;DHT22;22761;51.542;16.450;2022-11-03T16:37:07;13.06;61.26
36818;DHT22;22761;51.542;16.450;2022-11-03T16:39:34;12.86;61.86
36818;DHT22;22761;51.542;16.450;2022-11-03T16:42:04;12.65;61.98
36818;DHT22;22761;51.542;16.450;2022-11-03T16:44:31;12.48;62.38
36818;DHT22;22761;51.542;16.450;2022-11-03T16:47:00;12.52;63.35